createdAt,value
2023-02-07T00:01:21.849Z,0.79
2023-02-07T00:03:49.513Z,-0.15
2023-02-07T00:06:23.101Z,0.77
2023-02-07T00:08:50.117Z,1.76
2023-02-07T00:11:20.393Z,-0.47
2023-02-07T00:13:49.517Z,-0.04
2023-02-07T00:16:16.448Z,-0.76
2023-02-07T00:18:43.614Z,-1.20
2023-02-07T00:21:16.739Z,-0.11
2023-02-07T00:23:44.404Z,0.63
2023-02-07T00:26:13.343Z,0.51
2023-02-07T00:28:43.618Z,-0.42
2023-02-07T00:31:14.653Z,1.13
2023-02-07T00:33:43.614Z,-0.27
2023-02-07T00:36:17.053Z,0.46
2023-02-07T00:38:44.651Z,-0.31
2023-02-07T00:41:17.701Z,-1.07
2023-02-07T00:43:46.630Z,-0.07
2023-02-07T00:46:15.794Z,-1.50
2023-02-07T00:48:43.011Z,0.84
2023-02-07T00:51:11.805Z,-2.03
2023-02-07T00:53:39.578Z,0.11
2023-02-07T00:56:08.267Z,0.20
2023-02-07T00:58:35.275Z,0.75
2023-02-07T01:01:02.230Z,-1.21
2023-02-07T01:03:29.464Z,-0.76
2023-02-07T01:05:56.455Z,-1.56
2023-02-07T01:08:25.388Z,-2.32
2023-02-07T01:10:52.377Z,-1.64
2023-02-07T01:13:19.231Z,-1.52
2023-02-07T01:15:49.006Z,-2.50
2023-02-07T01:18:16.925Z,-1.48
2023-02-07T01:20:43.914Z,-2.02
2023-02-07T01:23:12.301Z,-0.78
2023-02-07T01:25:40.011Z,-1.65
2023-02-07T01:28:07.553Z,-1.84
2023-02-07T01:30:34.322Z,-2.78
2023-02-07T01:33:01.193Z,-1.77
2023-02-07T01:35:28.093Z,-2.45
2023-02-07T01:37:54.864Z,-1.85
2023-02-07T01:40:21.840Z,1.46
2023-02-07T01:42:49.588Z,-0.23
2023-02-07T01:45:22.770Z,-0.72
2023-02-07T01:47:52.696Z,-0.39
2023-02-07T01:50:20.285Z,-0.11
2023-02-07T01:52:47.407Z,-0.85
2023-02-07T01:55:20.274Z,-1.21
2023-02-07T01:57:47.206Z,1.07
2023-02-07T02:00:16.152Z,0.77
2023-02-07T02:02:44.422Z,0.54
2023-02-07T02:05:14.113Z,-0.14
2023-02-07T02:07:41.466Z,-0.05
2023-02-07T02:10:16.296Z,-0.07
2023-02-07T02:13:18.703Z,0.67
2023-02-07T02:15:54.028Z,-0.62
2023-02-07T02:18:40.066Z,-0.69
2023-02-07T02:21:25.268Z,-0.27
2023-02-07T02:24:13.700Z,-0.93
2023-02-07T02:27:10.724Z,-2.13
2023-02-07T02:30:15.480Z,-1.90
2023-02-07T02:33:00.320Z,0.51
2023-02-07T02:35:36.476Z,-1.30
2023-02-07T02:38:45.723Z,-0.52
2023-02-07T02:41:39.818Z,0.30
2023-02-07T02:44:26.587Z,-2.44
2023-02-07T02:46:55.590Z,-1.96
2023-02-07T02:49:23.303Z,-1.71
2023-02-07T02:51:51.728Z,-0.24
2023-02-07T02:54:33.556Z,-0.39
2023-02-07T02:57:35.611Z,1.28
2023-02-07T03:00:18.931Z,-1.35
2023-02-07T03:03:02.858Z,-0.03
2023-02-07T03:05:54.355Z,-2.79
2023-02-07T03:08:27.431Z,-1.78
2023-02-07T03:11:10.051Z,0.02
2023-02-07T03:13:55.010Z,-1.60
2023-02-07T03:16:32.880Z,-3.74
2023-02-07T03:19:41.620Z,-1.73
2023-02-07T03:22:13.303Z,-2.64
2023-02-07T03:24:50.308Z,-2.60
2023-02-07T03:27:20.262Z,-1.16
2023-02-07T03:29:50.760Z,-3.71
2023-02-07T03:32:20.218Z,-2.37
2023-02-07T03:34:59.204Z,-0.40
2023-02-07T03:37:32.171Z,-0.64
2023-02-07T03:39:59.232Z,-1.44
2023-02-07T03:42:38.777Z,0.09
2023-02-07T03:45:08.869Z,0.85
2023-02-07T03:47:35.603Z,-0.82
2023-02-07T03:50:02.656Z,0.68
2023-02-07T03:52:29.493Z,-1.42
2023-02-07T03:54:56.205Z,-1.06
2023-02-07T03:57:22.931Z,-0.48
2023-02-07T03:59:49.778Z,-0.52
2023-02-07T04:02:16.705Z,0.23
2023-02-07T04:04:43.440Z,1.32
2023-02-07T04:07:11.199Z,0.54
2023-02-07T04:09:37.989Z,1.50
2023-02-07T04:12:04.944Z,1.44
2023-02-07T04:14:31.730Z,0.78
2023-02-07T04:16:58.632Z,0.74
2023-02-07T04:19:25.346Z,-2.10
2023-02-07T04:21:52.259Z,-2.16
2023-02-07T04:24:18.939Z,-0.13
2023-02-07T04:26:45.823Z,-1.25
2023-02-07T04:29:12.528Z,-1.75
2023-02-07T04:31:40.337Z,-1.42
2023-02-07T04:34:07.396Z,-1.13
2023-02-07T04:36:34.184Z,0.17
2023-02-07T04:39:01.548Z,-0.61
2023-02-07T04:41:28.841Z,-0.55
2023-02-07T04:43:55.598Z,-0.73
2023-02-07T04:46:22.276Z,-0.10
2023-02-07T04:48:49.244Z,0.21
2023-02-07T04:51:16.395Z,-1.27
2023-02-07T04:53:43.365Z,0.42
2023-02-07T04:56:10.652Z,0.51
2023-02-07T04:58:37.488Z,1.43
2023-02-07T05:01:04.567Z,0.92
2023-02-07T05:03:31.935Z,0.64
2023-02-07T05:05:58.794Z,-1.12
2023-02-07T05:08:26.433Z,-0.64
2023-02-07T05:10:57.114Z,0.19
2023-02-07T05:13:24.668Z,-0.20
2023-02-07T05:15:52.244Z,-2.34
2023-02-07T05:18:19.464Z,-1.57
2023-02-07T05:20:46.948Z,-1.00
2023-02-07T05:23:13.975Z,-1.62
2023-02-07T05:25:43.865Z,-3.02
2023-02-07T05:28:11.502Z,-4.33
2023-02-07T05:30:38.373Z,-0.69
2023-02-07T05:33:05.248Z,-3.24
2023-02-07T05:35:38.370Z,-2.63
2023-02-07T05:38:08.668Z,-1.49
2023-02-07T05:40:37.576Z,0.26
2023-02-07T05:43:04.786Z,-0.64
2023-02-07T05:45:32.335Z,-0.72
2023-02-07T05:47:59.524Z,-1.98
2023-02-07T05:50:26.642Z,-2.79
2023-02-07T05:53:05.436Z,-2.18
2023-02-07T05:55:32.286Z,-1.57
2023-02-07T05:57:59.096Z,-1.41
2023-02-07T06:00:26.281Z,-1.00
2023-02-07T06:02:53.129Z,-2.32
2023-02-07T06:05:20.470Z,-1.84
2023-02-07T06:07:47.600Z,-1.92
2023-02-07T06:10:14.890Z,-2.49
2023-02-07T06:12:41.891Z,-1.68
2023-02-07T06:15:09.264Z,-3.60
2023-02-07T06:17:36.198Z,-4.24
2023-02-07T06:20:04.071Z,-3.63
2023-02-07T06:22:30.955Z,-4.22
2023-02-07T06:24:57.705Z,-3.66
2023-02-07T06:27:24.414Z,-1.61
2023-02-07T06:29:51.151Z,-4.85
2023-02-07T06:32:17.869Z,-4.66
2023-02-07T06:34:44.646Z,-2.78
2023-02-07T06:37:12.223Z,-4.20
2023-02-07T06:39:39.620Z,-4.63
2023-02-07T06:42:08.344Z,-3.44
2023-02-07T06:44:35.096Z,-2.11
2023-02-07T06:47:02.517Z,-0.66
2023-02-07T06:49:29.321Z,-4.13
2023-02-07T06:51:56.499Z,-2.46
2023-02-07T06:54:23.717Z,-3.82
2023-02-07T06:56:50.439Z,-3.74
2023-02-07T06:59:17.542Z,-3.68
2023-02-07T07:01:44.457Z,-2.22
2023-02-07T07:04:11.653Z,-1.06
2023-02-07T07:06:38.652Z,-2.45
2023-02-07T07:09:05.500Z,-3.96
2023-02-07T07:11:32.489Z,-3.21
2023-02-07T07:14:00.652Z,-2.55
2023-02-07T07:16:27.579Z,-3.94
2023-02-07T07:18:54.398Z,-2.76
2023-02-07T07:21:21.189Z,-3.51
2023-02-07T07:23:48.218Z,-2.68
2023-02-07T07:26:14.960Z,-3.07
2023-02-07T07:28:42.018Z,-1.76
2023-02-07T07:31:09.338Z,-1.86
2023-02-07T07:33:36.895Z,-3.19
2023-02-07T07:36:04.655Z,0.25
2023-02-07T07:38:32.933Z,-0.90
2023-02-07T07:41:00.359Z,-0.80
2023-02-07T07:43:27.884Z,0.20
2023-02-07T07:45:57.460Z,0.83
2023-02-07T07:48:25.172Z,1.44
2023-02-07T07:50:53.275Z,1.01
2023-02-07T07:53:20.767Z,-1.67
2023-02-07T07:55:56.415Z,0.09
2023-02-07T07:58:25.302Z,0.12
2023-02-07T08:00:52.800Z,-0.05
2023-02-07T08:03:20.851Z,0.92
2023-02-07T08:05:48.776Z,1.03
2023-02-07T08:08:16.079Z,0.94
2023-02-07T08:10:43.125Z,2.12
2023-02-07T08:13:10.233Z,-0.04
2023-02-07T08:15:37.615Z,0.01
2023-02-07T08:18:05.056Z,1.68
2023-02-07T08:20:32.137Z,0.42
2023-02-07T08:22:59.076Z,3.02
2023-02-07T08:25:26.915Z,3.73
2023-02-07T08:27:54.796Z,3.00
2023-02-07T08:30:22.283Z,1.23
2023-02-07T08:32:49.037Z,3.41
2023-02-07T08:35:15.830Z,3.40
2023-02-07T08:37:43.240Z,1.87
2023-02-07T08:40:10.388Z,3.40
2023-02-07T08:42:37.081Z,3.16
2023-02-07T08:45:05.754Z,3.53
2023-02-07T08:47:32.665Z,6.92
2023-02-07T08:49:59.347Z,6.67
2023-02-07T08:52:28.299Z,10.00
2023-02-07T08:54:55.697Z,9.06
2023-02-07T08:57:25.630Z,12.58
2023-02-07T08:59:53.795Z,8.33
2023-02-07T09:02:21.305Z,10.55
2023-02-07T09:04:48.643Z,5.46
2023-02-07T09:07:15.534Z,6.80
2023-02-07T09:09:43.059Z,11.11
2023-02-07T09:12:10.392Z,12.88
2023-02-07T09:14:38.550Z,10.95
2023-02-07T09:17:06.034Z,7.76
2023-02-07T09:19:33.788Z,10.71
2023-02-07T09:22:01.066Z,11.05
2023-02-07T09:24:28.278Z,11.30
2023-02-07T09:26:55.014Z,10.37
2023-02-07T09:29:22.203Z,4.92
2023-02-07T09:31:49.430Z,7.59
2023-02-07T09:34:17.217Z,10.17
2023-02-07T09:36:44.880Z,12.19
2023-02-07T09:39:12.505Z,9.24
2023-02-07T09:41:52.882Z,9.73
2023-02-07T09:44:28.482Z,7.67
2023-02-07T09:47:03.370Z,3.80
2023-02-07T09:49:36.206Z,7.25
2023-02-07T09:52:07.261Z,8.77
2023-02-07T09:54:43.142Z,8.75
2023-02-07T09:57:38.058Z,8.76
2023-02-07T10:00:19.771Z,10.97
2023-02-07T10:02:56.526Z,12.76
2023-02-07T10:05:49.694Z,12.97
2023-02-07T10:08:19.125Z,11.33
2023-02-07T10:10:53.035Z,11.11
2023-02-07T10:13:45.163Z,8.19
2023-02-07T10:16:46.231Z,7.27
2023-02-07T10:19:44.084Z,7.42
2023-02-07T10:22:26.470Z,8.10
2023-02-07T10:25:05.144Z,5.59
2023-02-07T10:27:42.641Z,6.28
2023-02-07T10:30:34.178Z,4.82
2023-02-07T10:33:08.237Z,4.57
2023-02-07T10:35:39.609Z,1.88
2023-02-07T10:38:20.192Z,3.68
2023-02-07T10:41:15.312Z,1.56
2023-02-07T10:43:46.160Z,1.49
2023-02-07T10:46:16.555Z,1.71
2023-02-07T10:48:43.826Z,3.14
2023-02-07T10:51:29.555Z,3.54
2023-02-07T10:54:02.808Z,4.83
2023-02-07T10:56:31.636Z,3.50
2023-02-07T10:58:59.234Z,3.57
2023-02-07T11:01:31.875Z,3.14
2023-02-07T11:03:59.161Z,5.18
2023-02-07T11:06:34.708Z,5.99
2023-02-07T11:09:22.131Z,4.42
2023-02-07T11:11:52.126Z,4.17
2023-02-07T11:14:26.713Z,7.20
2023-02-07T11:16:58.937Z,5.80
2023-02-07T11:19:28.972Z,6.53
2023-02-07T11:22:17.941Z,6.63
2023-02-07T11:24:46.264Z,5.78
2023-02-07T11:27:22.723Z,8.78
2023-02-07T11:29:49.918Z,7.66
2023-02-07T11:32:17.342Z,5.74
2023-02-07T11:34:53.354Z,7.05
2023-02-07T11:37:24.110Z,7.23
2023-02-07T11:39:53.703Z,7.93
2023-02-07T11:42:30.297Z,7.74
2023-02-07T11:44:57.355Z,5.65
2023-02-07T11:47:30.169Z,9.44
2023-02-07T11:50:07.807Z,9.52
2023-02-07T11:52:39.869Z,8.33
2023-02-07T11:55:22.169Z,5.86
2023-02-07T11:57:49.393Z,3.58
2023-02-07T12:00:25.276Z,8.53
2023-02-07T12:03:02.796Z,6.47
2023-02-07T12:05:41.253Z,6.35
2023-02-07T12:08:29.956Z,7.39
2023-02-07T12:11:07.292Z,7.36
2023-02-07T12:13:41.699Z,6.45
2023-02-07T12:16:20.833Z,6.23
2023-02-07T12:19:01.772Z,7.93
2023-02-07T12:21:35.021Z,6.50
2023-02-07T12:24:13.076Z,7.28
2023-02-07T12:27:01.923Z,6.12
2023-02-07T12:30:02.057Z,7.34
2023-02-07T12:32:58.713Z,7.57
2023-02-07T12:35:41.104Z,9.89
2023-02-07T12:38:23.983Z,9.96
2023-02-07T12:40:54.338Z,8.51
2023-02-07T12:43:25.938Z,8.91
2023-02-07T12:46:01.854Z,7.84
2023-02-07T12:48:59.230Z,5.29
2023-02-07T12:51:47.171Z,9.10
2023-02-07T12:54:30.086Z,6.35
2023-02-07T12:57:15.280Z,7.28
2023-02-07T12:59:50.873Z,8.41
2023-02-07T13:02:20.441Z,8.15
2023-02-07T13:04:59.360Z,5.16
2023-02-07T13:07:33.096Z,7.63
2023-02-07T13:10:21.758Z,4.49
2023-02-07T13:13:03.500Z,6.81
2023-02-07T13:15:49.302Z,5.29
2023-02-07T13:18:42.314Z,7.82
2023-02-07T13:21:16.591Z,5.89
2023-02-07T13:23:47.444Z,8.08
2023-02-07T13:26:20.088Z,7.51
2023-02-07T13:28:54.620Z,6.06
2023-02-07T13:31:27.958Z,7.63
2023-02-07T13:33:54.841Z,6.67
2023-02-07T13:36:38.060Z,8.44
2023-02-07T13:39:06.129Z,5.15
2023-02-07T13:42:11.837Z,7.41
2023-02-07T13:44:44.479Z,6.83
2023-02-07T13:47:42.344Z,6.69
2023-02-07T13:50:38.849Z,5.79
2023-02-07T13:53:24.884Z,8.53
2023-02-07T13:55:51.930Z,5.44
2023-02-07T13:58:52.626Z,6.23
2023-02-07T14:01:24.719Z,4.21
2023-02-07T14:04:05.548Z,6.47
2023-02-07T14:06:40.406Z,8.99
2023-02-07T14:09:32.556Z,5.28
2023-02-07T14:12:04.099Z,7.33
2023-02-07T14:14:38.927Z,5.99
2023-02-07T14:17:13.794Z,7.84
2023-02-07T14:19:41.439Z,6.11
2023-02-07T14:22:18.881Z,6.86
2023-02-07T14:25:03.697Z,3.46
2023-02-07T14:27:31.150Z,4.91
2023-02-07T14:30:16.395Z,5.39
2023-02-07T14:33:02.953Z,4.70
2023-02-07T14:35:33.467Z,4.21
2023-02-07T14:38:13.738Z,3.96
2023-02-07T14:40:43.178Z,4.82
2023-02-07T14:43:12.971Z,4.63
2023-02-07T14:45:51.887Z,3.89
2023-02-07T14:48:37.529Z,5.17
2023-02-07T14:51:07.449Z,1.41
2023-02-07T14:53:41.202Z,3.90
2023-02-07T14:56:23.850Z,2.55
2023-02-07T14:58:54.216Z,1.38
2023-02-07T15:01:21.462Z,3.19
2023-02-07T15:04:01.568Z,2.68
2023-02-07T15:06:32.734Z,4.37
2023-02-07T15:09:01.607Z,2.27
2023-02-07T15:11:30.371Z,1.91
2023-02-07T15:14:02.589Z,3.13
2023-02-07T15:16:38.609Z,3.68
2023-02-07T15:19:27.122Z,1.09
2023-02-07T15:21:54.178Z,3.67
2023-02-07T15:24:51.196Z,2.72
2023-02-07T15:27:27.409Z,3.60
2023-02-07T15:29:58.157Z,4.66
2023-02-07T15:32:33.086Z,3.74
2023-02-07T15:35:14.122Z,1.80
2023-02-07T15:37:40.889Z,4.07
2023-02-07T15:40:14.156Z,3.41
2023-02-07T15:42:57.643Z,2.17
2023-02-07T15:45:32.768Z,3.95
2023-02-07T15:48:08.212Z,1.60
2023-02-07T15:50:36.707Z,4.07
2023-02-07T15:53:09.304Z,4.42
2023-02-07T15:55:43.667Z,4.82
2023-02-07T15:58:22.951Z,4.31
2023-02-07T16:00:49.840Z,5.09
2023-02-07T16:03:28.830Z,2.91
2023-02-07T16:06:21.099Z,3.51
2023-02-07T16:08:50.393Z,4.60
2023-02-07T16:11:36.945Z,4.69
2023-02-07T16:14:12.819Z,4.13
2023-02-07T16:16:47.268Z,5.52
2023-02-07T16:19:14.097Z,5.45
2023-02-07T16:21:42.888Z,3.90
2023-02-07T16:24:16.354Z,3.49
2023-02-07T16:26:44.985Z,4.32
2023-02-07T16:29:20.847Z,4.13
2023-02-07T16:31:48.559Z,4.42
2023-02-07T16:34:17.806Z,3.44
2023-02-07T16:36:49.980Z,3.98
2023-02-07T16:39:17.327Z,3.49
2023-02-07T16:41:47.632Z,4.52
2023-02-07T16:44:20.120Z,4.07
2023-02-07T16:46:47.830Z,3.97
2023-02-07T16:49:20.035Z,4.17
2023-02-07T16:51:47.662Z,4.65
2023-02-07T16:54:14.824Z,3.42
2023-02-07T16:56:44.155Z,3.02
2023-02-07T16:59:14.771Z,3.92
2023-02-07T17:01:41.459Z,3.25
2023-02-07T17:04:08.405Z,2.95
2023-02-07T17:06:35.259Z,3.05
2023-02-07T17:09:02.745Z,3.89
2023-02-07T17:11:29.742Z,3.23
2023-02-07T17:13:58.277Z,3.59
2023-02-07T17:16:27.345Z,2.19
2023-02-07T17:18:54.400Z,2.94
2023-02-07T17:21:22.546Z,2.62
2023-02-07T17:23:49.618Z,3.13
2023-02-07T17:26:25.668Z,0.46
2023-02-07T17:28:53.635Z,2.49
2023-02-07T17:31:21.984Z,2.12
2023-02-07T17:33:49.292Z,2.84
2023-02-07T17:36:16.938Z,2.58
2023-02-07T17:38:44.698Z,1.56
2023-02-07T17:41:12.743Z,-0.31
2023-02-07T17:43:41.423Z,2.06
2023-02-07T17:46:23.262Z,1.04
2023-02-07T17:48:51.132Z,2.07
2023-02-07T17:51:21.577Z,2.42
2023-02-07T17:53:48.716Z,2.13
2023-02-07T17:56:29.127Z,1.36
2023-02-07T17:58:58.814Z,1.58
2023-02-07T18:01:26.022Z,1.55
2023-02-07T18:03:54.271Z,0.81
2023-02-07T18:06:24.328Z,1.92
2023-02-07T18:08:51.657Z,2.35
2023-02-07T18:11:19.065Z,0.46
2023-02-07T18:13:48.447Z,0.66
2023-02-07T18:16:18.653Z,0.62
2023-02-07T18:18:45.450Z,0.45
2023-02-07T18:21:13.671Z,2.12
2023-02-07T18:23:43.015Z,1.24
2023-02-07T18:26:15.195Z,1.57
2023-02-07T18:28:43.114Z,0.15
2023-02-07T18:31:15.952Z,2.43
2023-02-07T18:33:43.104Z,1.89
2023-02-07T18:36:10.213Z,2.58
2023-02-07T18:38:37.327Z,1.32
2023-02-07T18:41:12.063Z,2.01
2023-02-07T18:43:40.511Z,0.80
2023-02-07T18:46:12.489Z,1.15
2023-02-07T18:48:39.938Z,1.14
2023-02-07T18:51:08.264Z,0.12
2023-02-07T18:53:35.044Z,0.75
2023-02-07T18:56:11.604Z,-0.47
2023-02-07T18:58:38.771Z,0.54
2023-02-07T19:01:11.407Z,1.43
2023-02-07T19:03:38.702Z,0.66
2023-02-07T19:06:06.925Z,0.11
2023-02-07T19:08:34.332Z,0.96
2023-02-07T19:11:04.228Z,1.54
2023-02-07T19:13:33.166Z,1.32
2023-02-07T19:16:08.929Z,-1.31
2023-02-07T19:18:35.717Z,1.28
2023-02-07T19:21:07.883Z,-0.26
2023-02-07T19:23:35.131Z,0.75
2023-02-07T19:26:03.008Z,1.11
2023-02-07T19:28:31.379Z,0.59
2023-02-07T19:30:58.179Z,0.13
2023-02-07T19:33:25.520Z,0.64
2023-02-07T19:35:52.335Z,0.96
2023-02-07T19:38:19.956Z,1.30
2023-02-07T19:40:56.620Z,1.17
2023-02-07T19:43:24.231Z,1.10
2023-02-07T19:45:51.088Z,0.37
2023-02-07T19:48:18.172Z,0.58
2023-02-07T19:50:45.244Z,0.79
2023-02-07T19:53:13.761Z,-0.08
2023-02-07T19:55:41.812Z,-0.82
2023-02-07T19:58:09.505Z,0.99
2023-02-07T20:00:37.910Z,0.96
2023-02-07T20:03:05.541Z,-0.91
2023-02-07T20:05:32.263Z,-0.28
2023-02-07T20:07:59.031Z,-0.59
2023-02-07T20:10:26.068Z,-3.05
2023-02-07T20:12:52.961Z,-0.42
2023-02-07T20:15:19.984Z,-2.37
2023-02-07T20:17:46.762Z,-1.83
2023-02-07T20:20:14.459Z,-3.62
2023-02-07T20:22:41.214Z,-0.18
2023-02-07T20:25:08.583Z,-2.69
2023-02-07T20:27:35.318Z,-2.64
2023-02-07T20:30:02.071Z,-2.31
2023-02-07T20:32:28.948Z,-2.67
2023-02-07T20:34:56.045Z,0.25
2023-02-07T20:37:22.732Z,-1.58
2023-02-07T20:39:50.084Z,-2.81
2023-02-07T20:42:16.840Z,-2.45
2023-02-07T20:44:43.626Z,-1.68
2023-02-07T20:47:11.390Z,-1.42
2023-02-07T20:49:38.422Z,-0.19
2023-02-07T20:52:05.486Z,-1.08
2023-02-07T20:54:32.682Z,-1.41
2023-02-07T20:56:59.445Z,-1.60
2023-02-07T20:59:29.107Z,-0.41
2023-02-07T21:01:56.506Z,-2.63
2023-02-07T21:04:23.318Z,-0.95
2023-02-07T21:06:50.735Z,-2.40
2023-02-07T21:09:18.329Z,0.27
2023-02-07T21:11:48.272Z,0.32
2023-02-07T21:14:22.835Z,-0.97
2023-02-07T21:16:49.638Z,0.86
2023-02-07T21:19:17.554Z,-0.51
2023-02-07T21:21:46.858Z,-0.65
2023-02-07T21:24:15.216Z,-1.39
2023-02-07T21:26:42.518Z,-0.39
2023-02-07T21:29:11.905Z,-0.42
2023-02-07T21:31:38.763Z,-0.82
2023-02-07T21:34:10.724Z,0.31
2023-02-07T21:36:38.132Z,-0.59
2023-02-07T21:39:09.261Z,-0.30
2023-02-07T21:41:38.110Z,-0.57
2023-02-07T21:44:05.599Z,-0.49
2023-02-07T21:46:35.712Z,-0.25
2023-02-07T21:49:14.785Z,0.60
2023-02-07T21:51:43.530Z,0.28
2023-02-07T21:54:10.485Z,0.15
2023-02-07T21:56:39.960Z,-0.16
2023-02-07T21:59:11.550Z,0.15
2023-02-07T22:01:38.420Z,-0.08
2023-02-07T22:04:07.020Z,0.48
2023-02-07T22:06:34.419Z,0.48
2023-02-07T22:09:02.452Z,1.09
2023-02-07T22:11:31.511Z,0.02
2023-02-07T22:13:58.769Z,0.22
2023-02-07T22:16:28.409Z,-0.06
2023-02-07T22:18:57.107Z,-0.23
2023-02-07T22:21:29.771Z,-0.14
2023-02-07T22:23:58.271Z,-0.84
2023-02-07T22:26:26.641Z,-0.43
2023-02-07T22:28:54.452Z,0.08
2023-02-07T22:31:30.003Z,-0.67
2023-02-07T22:34:00.929Z,-0.22
2023-02-07T22:36:31.531Z,-1.35
2023-02-07T22:39:00.014Z,-0.64
2023-02-07T22:41:27.651Z,-0.95
2023-02-07T22:43:55.029Z,-0.66
2023-02-07T22:46:24.130Z,-0.64
2023-02-07T22:48:52.313Z,-1.34
2023-02-07T22:51:24.853Z,-1.75
2023-02-07T22:53:55.379Z,-1.10
2023-02-07T22:56:22.924Z,-2.40
2023-02-07T22:58:50.164Z,-2.27
2023-02-07T23:01:24.446Z,-3.16
2023-02-07T23:03:52.325Z,-2.24
2023-02-07T23:06:20.305Z,-2.01
2023-02-07T23:08:47.077Z,-2.34
2023-02-07T23:11:15.671Z,-2.37
2023-02-07T23:13:42.859Z,-2.48
2023-02-07T23:16:18.854Z,-3.13
2023-02-07T23:18:45.590Z,-2.90
2023-02-07T23:21:16.103Z,-2.14
2023-02-07T23:23:43.233Z,-2.39
2023-02-07T23:26:14.000Z,-2.53
2023-02-07T23:28:41.430Z,-2.70
2023-02-07T23:31:11.265Z,-2.87
2023-02-07T23:33:38.492Z,-2.40
2023-02-07T23:36:06.375Z,-3.01
2023-02-07T23:38:34.370Z,-4.96
2023-02-07T23:41:02.324Z,-2.72
2023-02-07T23:43:29.479Z,-3.52
2023-02-07T23:45:56.409Z,-3.58
2023-02-07T23:48:23.207Z,-4.34
2023-02-07T23:50:55.133Z,-2.82
2023-02-07T23:53:22.777Z,-3.94
2023-02-07T23:55:50.478Z,-2.04
2023-02-07T23:58:17.448Z,-2.35
